createdAt,value
2023-03-03T00:02:14.968Z,64.34
2023-03-03T00:05:03.762Z,64.54
2023-03-03T00:07:46.027Z,65.15
2023-03-03T00:10:34.641Z,65.18
2023-03-03T00:13:37.716Z,64.99
2023-03-03T00:16:50.221Z,65.91
2023-03-03T00:19:31.708Z,65.96
2023-03-03T00:22:28.073Z,65.32
2023-03-03T00:25:44.705Z,65.04
2023-03-03T00:28:39.747Z,66.05
2023-03-03T00:31:44.032Z,64.81
2023-03-03T00:34:38.787Z,64.05
2023-03-03T00:37:31.239Z,64.76
2023-03-03T00:40:35.711Z,64.90
2023-03-03T00:43:40.752Z,65.09
2023-03-03T00:46:24.938Z,64.87
2023-03-03T00:49:14.940Z,64.71
2023-03-03T00:52:03.059Z,65.62
2023-03-03T00:54:44.793Z,64.18
2023-03-03T00:57:32.972Z,63.63
2023-03-03T01:00:19.689Z,64.32
2023-03-03T01:03:06.815Z,64.18
2023-03-03T01:05:55.792Z,65.03
2023-03-03T01:08:48.102Z,65.00
2023-03-03T01:11:34.749Z,65.21
2023-03-03T01:14:17.044Z,66.33
2023-03-03T01:17:06.641Z,64.06
2023-03-03T01:19:48.942Z,65.42
2023-03-03T01:22:37.685Z,64.07
2023-03-03T01:25:19.978Z,63.73
2023-03-03T01:28:08.637Z,63.77
2023-03-03T01:30:57.045Z,64.10
2023-03-03T01:33:40.706Z,64.18
2023-03-03T01:36:27.502Z,64.51
2023-03-03T01:39:16.685Z,64.81
2023-03-03T01:41:59.100Z,64.65
2023-03-03T01:44:48.736Z,65.09
2023-03-03T01:47:41.733Z,64.44
2023-03-03T01:50:42.643Z,65.28
2023-03-03T01:53:41.633Z,63.91
2023-03-03T01:56:45.609Z,63.34
2023-03-03T01:59:40.632Z,63.07
2023-03-03T02:02:24.062Z,62.66
2023-03-03T02:05:13.651Z,64.39
2023-03-03T02:07:55.964Z,62.10
2023-03-03T02:10:45.737Z,63.52
2023-03-03T02:13:27.953Z,61.37
2023-03-03T02:16:16.793Z,61.37
2023-03-03T02:19:05.678Z,62.04
2023-03-03T02:21:47.944Z,62.02
2023-03-03T02:27:45.673Z,61.47
2023-03-03T02:30:31.026Z,62.47
2023-03-03T02:33:19.745Z,61.55
2023-03-03T02:36:03.482Z,59.49
2023-03-03T02:39:13.699Z,60.25
2023-03-03T02:42:07.502Z,60.10
2023-03-03T02:45:01.699Z,60.53
2023-03-03T02:47:43.948Z,60.51
2023-03-03T02:50:33.736Z,59.40
2023-03-03T02:53:22.524Z,60.43
2023-03-03T02:56:11.881Z,60.50
2023-03-03T02:58:53.938Z,59.54
2023-03-03T03:01:45.746Z,60.19
2023-03-03T03:04:31.996Z,59.81
2023-03-03T03:07:20.673Z,60.30
2023-03-03T03:10:09.788Z,59.79
2023-03-03T03:12:57.899Z,60.47
2023-03-03T03:15:40.733Z,59.06
2023-03-03T03:18:28.940Z,58.96
2023-03-03T03:21:16.735Z,59.12
2023-03-03T03:24:05.744Z,58.95
2023-03-03T03:26:52.912Z,57.53
2023-03-03T03:29:42.726Z,57.69
2023-03-03T03:32:26.002Z,56.75
2023-03-03T03:35:15.721Z,55.67
2023-03-03T03:37:57.910Z,55.99
2023-03-03T03:40:46.730Z,51.68
2023-03-03T03:43:35.705Z,49.03
2023-03-03T03:46:24.831Z,49.30
2023-03-03T03:49:06.912Z,49.21
2023-03-03T03:51:57.683Z,48.79
2023-03-03T03:54:42.119Z,49.02
2023-03-03T03:57:30.678Z,46.32
2023-03-03T04:00:14.114Z,43.72
2023-03-03T04:03:09.789Z,41.91
2023-03-03T04:05:54.519Z,41.13
2023-03-03T04:08:43.949Z,40.88
2023-03-03T04:11:29.176Z,40.39
2023-03-03T04:14:19.744Z,39.64
2023-03-03T04:17:03.041Z,40.28
2023-03-03T04:19:51.795Z,39.11
2023-03-03T04:22:34.986Z,39.08
2023-03-03T04:25:24.712Z,36.73
2023-03-03T04:28:14.688Z,36.81
2023-03-03T04:31:05.613Z,37.60
2023-03-03T04:33:48.764Z,35.37
2023-03-03T04:36:39.062Z,35.56
2023-03-03T04:39:21.691Z,36.51
2023-03-03T04:42:12.964Z,37.16
2023-03-03T04:44:56.683Z,37.44
2023-03-03T04:47:39.062Z,36.31
2023-03-03T04:50:28.676Z,37.70
2023-03-03T04:53:11.878Z,37.31
2023-03-03T04:56:01.730Z,36.71
2023-03-03T04:58:52.036Z,36.90
2023-03-03T05:01:34.693Z,36.25
2023-03-03T05:04:23.735Z,36.72
2023-03-03T05:07:05.996Z,34.61
2023-03-03T05:09:55.149Z,35.00
2023-03-03T05:12:37.062Z,36.33
2023-03-03T05:15:25.666Z,37.32
2023-03-03T05:18:07.992Z,37.38
2023-03-03T05:20:57.676Z,36.28
2023-03-03T05:23:39.948Z,36.85
2023-03-03T05:26:28.686Z,35.92
2023-03-03T05:29:11.981Z,37.38
2023-03-03T05:32:00.759Z,36.98
2023-03-03T05:34:49.652Z,36.08
2023-03-03T05:37:31.952Z,35.76
2023-03-03T05:40:21.716Z,37.27
2023-03-03T05:43:10.708Z,36.83
2023-03-03T05:45:53.029Z,37.58
2023-03-03T05:48:41.707Z,35.28
2023-03-03T05:51:24.076Z,36.24
2023-03-03T05:54:12.711Z,34.77
2023-03-03T05:57:07.545Z,35.51
2023-03-03T05:59:56.813Z,35.41
2023-03-03T06:02:47.993Z,36.13
2023-03-03T06:05:36.684Z,37.69
2023-03-03T06:08:18.980Z,35.64
2023-03-03T06:11:07.760Z,37.41
2023-03-03T06:13:49.979Z,37.48
2023-03-03T06:16:38.728Z,36.57
2023-03-03T06:19:21.026Z,36.87
2023-03-03T06:22:09.621Z,37.80
2023-03-03T06:24:53.704Z,38.19
2023-03-03T06:27:43.025Z,37.72
2023-03-03T06:30:24.994Z,35.92
2023-03-03T06:33:15.079Z,37.63
2023-03-03T06:36:05.810Z,37.37
2023-03-03T06:38:54.682Z,36.60
2023-03-03T06:41:36.908Z,35.95
2023-03-03T06:44:27.671Z,35.09
2023-03-03T06:47:10.954Z,36.82
2023-03-03T06:49:59.708Z,35.86
2023-03-03T06:52:42.022Z,36.86
2023-03-03T06:55:31.646Z,34.61
2023-03-03T06:58:20.988Z,37.66
2023-03-03T07:01:09.650Z,34.43
2023-03-03T07:03:52.095Z,32.61
2023-03-03T07:06:40.726Z,34.16
2023-03-03T07:09:35.052Z,35.61
2023-03-03T07:12:43.699Z,36.12
2023-03-03T07:15:29.029Z,36.25
2023-03-03T07:18:33.685Z,37.78
2023-03-03T07:21:36.799Z,35.71
2023-03-03T07:24:21.665Z,37.62
2023-03-03T07:27:39.723Z,38.35
2023-03-03T07:30:30.673Z,34.80
2023-03-03T07:33:32.730Z,38.56
2023-03-03T07:36:44.949Z,35.41
2023-03-03T07:39:40.667Z,37.10
2023-03-03T07:42:30.549Z,37.92
2023-03-03T07:45:42.746Z,35.95
2023-03-03T07:48:45.000Z,35.16
2023-03-03T07:51:35.702Z,37.09
2023-03-03T07:54:23.358Z,39.55
2023-03-03T07:57:20.704Z,37.46
2023-03-03T08:00:19.622Z,38.62
2023-03-03T08:03:11.690Z,38.89
2023-03-03T08:06:00.197Z,40.87
2023-03-03T08:08:44.689Z,38.32
2023-03-03T08:11:34.021Z,37.08
2023-03-03T08:14:23.820Z,37.39
2023-03-03T08:17:27.321Z,39.39
2023-03-03T08:20:16.625Z,36.82
2023-03-03T08:23:05.010Z,35.15
2023-03-03T08:25:48.609Z,37.31
2023-03-03T08:28:37.747Z,37.21
2023-03-03T08:31:31.097Z,39.14
2023-03-03T08:34:27.634Z,37.69
2023-03-03T08:37:09.949Z,36.86
2023-03-03T08:39:58.647Z,36.85
2023-03-03T08:42:40.885Z,37.63
2023-03-03T08:45:30.053Z,36.49
2023-03-03T08:48:11.893Z,35.32
2023-03-03T08:51:00.653Z,35.12
2023-03-03T08:53:49.617Z,35.33
2023-03-03T08:56:31.828Z,37.61
2023-03-03T08:59:21.715Z,37.93
2023-03-03T09:02:03.919Z,39.41
2023-03-03T09:04:52.637Z,39.03
2023-03-03T09:07:35.073Z,39.30
2023-03-03T09:10:25.685Z,39.65
2023-03-03T09:13:17.686Z,38.78
2023-03-03T09:16:06.708Z,39.85
2023-03-03T09:18:54.954Z,37.96
2023-03-03T09:21:42.658Z,39.74
2023-03-03T09:24:36.651Z,38.98
2023-03-03T09:27:31.899Z,37.19
2023-03-03T09:30:42.766Z,37.46
2023-03-03T09:33:52.668Z,37.55
2023-03-03T09:36:46.704Z,40.10
2023-03-03T09:39:41.679Z,39.06
2023-03-03T09:43:05.125Z,39.61
2023-03-03T09:46:05.668Z,39.15
2023-03-03T09:49:21.166Z,36.51
2023-03-03T09:52:42.671Z,37.13
2023-03-03T09:55:51.415Z,37.97
2023-03-03T09:59:04.703Z,38.61
2023-03-03T10:02:26.028Z,37.36
2023-03-03T10:05:14.649Z,38.88
2023-03-03T10:08:10.675Z,40.18
2023-03-03T10:11:16.916Z,39.00
2023-03-03T10:14:12.764Z,38.27
2023-03-03T10:17:29.750Z,37.31
2023-03-03T10:20:49.076Z,37.01
2023-03-03T10:23:56.861Z,37.13
2023-03-03T10:27:05.253Z,36.08
2023-03-03T10:30:00.761Z,37.31
2023-03-03T10:33:12.128Z,37.08
2023-03-03T10:36:25.730Z,38.02
2023-03-03T10:39:31.972Z,39.00
2023-03-03T10:42:19.727Z,39.75
2023-03-03T10:45:28.213Z,39.02
2023-03-03T10:48:18.714Z,39.44
2023-03-03T10:51:24.959Z,39.39
2023-03-03T10:54:30.726Z,40.33
2023-03-03T10:57:44.466Z,37.55
2023-03-03T11:00:39.703Z,37.39
2023-03-03T11:03:46.088Z,37.56
2023-03-03T11:07:44.676Z,40.29
2023-03-03T11:10:45.459Z,40.08
2023-03-03T11:13:54.628Z,39.45
2023-03-03T11:16:49.950Z,38.14
2023-03-03T11:19:38.678Z,39.54
2023-03-03T11:22:40.198Z,41.67
2023-03-03T11:25:49.073Z,41.98
2023-03-03T11:28:31.212Z,42.57
2023-03-03T11:31:32.720Z,42.72
2023-03-03T11:34:32.932Z,42.90
2023-03-03T11:37:27.695Z,43.07
2023-03-03T11:40:19.965Z,41.76
2023-03-03T11:43:37.441Z,42.38
2023-03-03T11:46:51.956Z,43.96
2023-03-03T11:50:24.720Z,42.85
2023-03-03T11:53:39.908Z,43.60
2023-03-03T11:56:54.664Z,43.19
2023-03-03T12:00:24.653Z,42.11
2023-03-03T12:03:36.748Z,41.82
2023-03-03T12:07:04.022Z,42.42
2023-03-03T12:10:19.679Z,43.53
2023-03-03T12:13:31.020Z,43.69
2023-03-03T12:16:26.729Z,43.08
2023-03-03T12:19:25.114Z,43.71
2023-03-03T12:23:06.751Z,45.00
2023-03-03T12:26:08.016Z,45.31
2023-03-03T12:29:36.676Z,44.15
2023-03-03T12:32:40.095Z,45.47
2023-03-03T12:35:55.661Z,45.39
2023-03-03T12:38:58.939Z,45.58
2023-03-03T12:41:58.719Z,46.13
2023-03-03T12:45:14.955Z,46.80
2023-03-03T12:48:22.694Z,47.43
2023-03-03T12:51:41.988Z,47.56
2023-03-03T12:54:52.720Z,48.69
2023-03-03T12:57:52.064Z,48.72
2023-03-03T13:01:07.755Z,49.27
2023-03-03T13:04:13.170Z,50.22
2023-03-03T13:07:26.751Z,51.31
2023-03-03T13:10:18.120Z,49.87
2023-03-03T13:13:43.732Z,50.90
2023-03-03T13:17:03.852Z,51.28
2023-03-03T13:20:07.015Z,51.12
2023-03-03T13:23:27.655Z,52.40
2023-03-03T13:26:18.411Z,52.74
2023-03-03T13:29:19.730Z,52.83
2023-03-03T13:32:10.185Z,52.78
2023-03-03T13:35:38.671Z,53.05
2023-03-03T13:39:00.202Z,54.34
2023-03-03T13:41:54.734Z,54.12
2023-03-03T13:44:49.973Z,53.17
2023-03-03T13:48:01.710Z,54.14
2023-03-03T13:51:01.716Z,53.24
2023-03-03T13:53:50.380Z,54.06
2023-03-03T13:57:04.664Z,54.01
2023-03-03T14:00:26.948Z,54.33
2023-03-03T14:03:48.166Z,54.57
2023-03-03T14:06:38.757Z,55.11
2023-03-03T14:10:00.957Z,55.23
2023-03-03T14:12:59.717Z,54.58
2023-03-03T14:16:13.019Z,55.98
2023-03-03T14:18:57.683Z,56.82
2023-03-03T14:22:05.696Z,55.70
2023-03-03T14:25:14.944Z,55.33
2023-03-03T14:28:15.156Z,55.73
2023-03-03T14:30:57.951Z,57.42
2023-03-03T14:34:05.152Z,56.82
2023-03-03T14:36:49.683Z,57.03
2023-03-03T14:39:45.785Z,58.06
2023-03-03T14:43:00.657Z,57.26
2023-03-03T14:45:51.205Z,57.54
2023-03-03T14:48:35.661Z,57.56
2023-03-03T14:51:33.998Z,57.95
2023-03-03T14:54:38.724Z,59.09
2023-03-03T14:57:57.152Z,58.16
2023-03-03T15:00:52.763Z,59.28
2023-03-03T15:03:43.924Z,58.55
2023-03-03T15:06:57.696Z,58.44
2023-03-03T15:09:57.970Z,58.84
2023-03-03T15:12:45.940Z,58.49
2023-03-03T15:15:30.891Z,58.21
2023-03-03T15:18:27.670Z,58.58
2023-03-03T15:21:27.229Z,59.31
2023-03-03T15:24:38.699Z,58.72
2023-03-03T15:27:43.695Z,59.70
2023-03-03T15:30:38.988Z,59.55
2023-03-03T15:33:38.632Z,59.45
2023-03-03T15:36:45.674Z,59.92
2023-03-03T15:39:42.045Z,59.82
2023-03-03T15:42:43.749Z,60.15
2023-03-03T15:45:51.004Z,60.45
2023-03-03T15:48:54.674Z,61.23
2023-03-03T15:52:02.730Z,61.66
2023-03-03T15:55:09.655Z,61.71
2023-03-03T15:58:07.673Z,62.17
2023-03-03T16:01:16.194Z,63.03
2023-03-03T16:04:13.760Z,62.08
2023-03-03T16:07:24.582Z,62.86
2023-03-03T16:10:07.453Z,61.92
2023-03-03T16:13:09.013Z,62.57
2023-03-03T16:16:18.092Z,62.45
2023-03-03T16:19:33.692Z,62.63
2023-03-03T16:22:57.054Z,62.66
2023-03-03T16:26:19.735Z,62.29
2023-03-03T16:29:29.299Z,62.91
2023-03-03T16:32:57.979Z,62.51
2023-03-03T16:35:46.826Z,62.98
2023-03-03T16:38:47.703Z,62.98
2023-03-03T16:42:11.053Z,64.86
2023-03-03T16:45:08.857Z,62.95
2023-03-03T16:48:07.100Z,65.89
2023-03-03T16:51:22.804Z,62.80
2023-03-03T16:54:15.001Z,62.89
2023-03-03T16:57:26.797Z,64.30
2023-03-03T17:00:38.803Z,63.44
2023-03-03T17:04:01.017Z,64.21
2023-03-03T17:07:13.753Z,63.71
2023-03-03T17:10:15.296Z,64.93
2023-03-03T17:13:20.955Z,64.04
2023-03-03T17:16:42.702Z,65.55
2023-03-03T17:20:02.774Z,65.53
2023-03-03T17:23:22.137Z,64.62
2023-03-03T17:26:22.103Z,64.28
2023-03-03T17:29:44.101Z,63.78
2023-03-03T17:32:45.331Z,64.11
2023-03-03T17:35:47.411Z,65.49
2023-03-03T17:38:36.801Z,62.83
2023-03-03T17:41:34.057Z,62.52
2023-03-03T17:45:10.446Z,64.20
2023-03-03T17:48:06.981Z,64.31
2023-03-03T17:51:28.362Z,64.02
2023-03-03T17:54:53.673Z,63.02
2023-03-03T17:58:06.762Z,63.85
2023-03-03T18:01:14.702Z,63.32
2023-03-03T18:04:31.881Z,62.41
2023-03-03T18:07:30.714Z,63.04
2023-03-03T18:10:42.808Z,62.28
2023-03-03T18:13:39.334Z,63.07
2023-03-03T18:16:47.920Z,63.85
2023-03-03T18:20:17.122Z,64.67
2023-03-03T18:23:02.218Z,64.18
2023-03-03T18:26:23.196Z,64.71
2023-03-03T18:29:29.587Z,64.70
2023-03-03T18:32:32.305Z,63.97
2023-03-03T18:35:51.152Z,63.75
2023-03-03T18:38:47.332Z,63.92
2023-03-03T18:41:37.737Z,63.24
2023-03-03T18:44:36.696Z,62.97
2023-03-03T18:47:22.148Z,64.13
2023-03-03T18:50:24.890Z,63.54
2023-03-03T18:53:37.465Z,62.36
2023-03-03T18:56:56.682Z,61.64
2023-03-03T18:59:46.518Z,62.33
2023-03-03T19:02:43.963Z,62.84
2023-03-03T19:05:50.208Z,64.16
2023-03-03T19:08:44.855Z,63.69
2023-03-03T19:12:04.121Z,63.16
2023-03-03T19:14:50.300Z,63.65
2023-03-03T19:17:46.988Z,63.21
2023-03-03T19:20:33.023Z,63.91
2023-03-03T19:23:29.162Z,63.55
2023-03-03T19:26:33.629Z,64.42
2023-03-03T19:29:40.588Z,63.38
2023-03-03T19:32:39.009Z,64.80
2023-03-03T19:35:35.946Z,63.88
2023-03-03T19:38:55.199Z,63.97
2023-03-03T19:41:51.712Z,63.78
2023-03-03T19:44:43.066Z,62.31
2023-03-03T19:47:44.681Z,62.17
2023-03-03T19:50:48.035Z,62.41
2023-03-03T19:53:48.593Z,62.52
2023-03-03T19:56:52.078Z,62.94
2023-03-03T20:00:05.610Z,62.09
2023-03-03T20:03:25.221Z,61.59
2023-03-03T20:06:41.026Z,60.94
2023-03-03T20:09:33.957Z,61.53
2023-03-03T20:12:40.718Z,60.99
2023-03-03T20:15:30.365Z,61.22
2023-03-03T20:18:48.783Z,61.84
2023-03-03T20:22:11.649Z,61.54
2023-03-03T20:25:16.507Z,62.23
2023-03-03T20:28:17.426Z,62.11
2023-03-03T20:31:26.088Z,62.23
2023-03-03T20:34:36.674Z,62.39
2023-03-03T20:37:32.634Z,62.91
2023-03-03T20:40:40.520Z,62.97
2023-03-03T20:43:53.621Z,64.03
2023-03-03T20:46:41.506Z,62.78
2023-03-03T20:49:57.682Z,63.19
2023-03-03T20:53:23.451Z,63.61
2023-03-03T20:56:27.778Z,64.40
2023-03-03T20:59:28.474Z,64.96
2023-03-03T21:02:32.615Z,65.48
2023-03-03T21:05:27.948Z,65.10
2023-03-03T21:08:17.051Z,65.50
2023-03-03T21:11:06.156Z,65.70
2023-03-03T21:13:59.613Z,65.11
2023-03-03T21:16:42.408Z,65.63
2023-03-03T21:19:38.678Z,65.67
2023-03-03T21:22:23.837Z,65.97
2023-03-03T21:25:12.590Z,66.02
2023-03-03T21:27:54.986Z,66.62
2023-03-03T21:30:43.587Z,66.40
2023-03-03T21:33:53.940Z,65.89
2023-03-03T21:36:45.691Z,66.61
2023-03-03T21:39:54.132Z,65.63
2023-03-03T21:42:51.626Z,64.88
2023-03-03T21:45:34.919Z,64.46
2023-03-03T21:48:23.633Z,64.32
2023-03-03T21:51:05.902Z,64.50
2023-03-03T21:53:55.657Z,63.98
2023-03-03T21:56:39.036Z,64.02
2023-03-03T21:59:34.604Z,64.00
2023-03-03T22:02:23.615Z,64.23
2023-03-03T22:05:08.426Z,64.29
2023-03-03T22:07:58.694Z,64.82
2023-03-03T22:10:40.933Z,64.35
2023-03-03T22:13:31.033Z,64.69
2023-03-03T22:16:14.040Z,65.14
2023-03-03T22:19:02.848Z,64.83
2023-03-03T22:21:47.848Z,64.83
2023-03-03T22:24:37.601Z,65.03
2023-03-03T22:27:19.901Z,65.28
2023-03-03T22:30:08.621Z,64.90
2023-03-03T22:32:59.676Z,65.45
2023-03-03T22:35:48.978Z,64.61
2023-03-03T22:38:32.561Z,65.53
2023-03-03T22:41:15.571Z,65.75
2023-03-03T22:44:04.572Z,66.70
2023-03-03T22:46:46.818Z,66.24
2023-03-03T22:49:35.620Z,66.26
2023-03-03T22:52:17.853Z,65.61
2023-03-03T22:55:06.610Z,65.63
2023-03-03T22:57:49.130Z,65.60
2023-03-03T23:00:37.582Z,65.50
2023-03-03T23:03:21.903Z,65.10
2023-03-03T23:06:10.646Z,65.50
2023-03-03T23:08:58.898Z,64.82
2023-03-03T23:11:41.628Z,64.16
2023-03-03T23:14:29.941Z,64.47
2023-03-03T23:17:12.887Z,64.03
2023-03-03T23:19:54.800Z,63.91
2023-03-03T23:22:43.597Z,63.59
2023-03-03T23:25:26.771Z,63.38
2023-03-03T23:28:15.618Z,63.53
2023-03-03T23:31:04.643Z,64.05
2023-03-03T23:33:46.894Z,63.62
2023-03-03T23:36:35.633Z,63.98
2023-03-03T23:39:25.660Z,63.77
2023-03-03T23:42:13.919Z,63.50
2023-03-03T23:44:56.649Z,63.33
2023-03-03T23:47:45.648Z,63.74
2023-03-03T23:50:34.584Z,64.28
2023-03-03T23:53:22.929Z,63.61
2023-03-03T23:56:05.544Z,64.82
2023-03-03T23:58:47.928Z,63.46
